createdAt,value
2022-10-18T00:00:40.108Z,98002.09
2022-10-18T00:03:09.805Z,98002.50
2022-10-18T00:05:36.410Z,98000.25
2022-10-18T00:08:03.082Z,98006.16
2022-10-18T00:10:32.148Z,98009.72
2022-10-18T00:12:58.787Z,98018.22
2022-10-18T00:15:30.525Z,98012.47
2022-10-18T00:17:57.061Z,98007.41
2022-10-18T00:20:25.832Z,98007.41
2022-10-18T00:22:52.568Z,98000.81
2022-10-18T00:25:19.236Z,97995.75
2022-10-18T00:27:45.783Z,97988.66
2022-10-18T00:30:12.441Z,97979.31
2022-10-18T00:32:42.350Z,97994.44
2022-10-18T00:35:11.406Z,97983.91
2022-10-18T00:37:38.065Z,97991.66
2022-10-18T00:40:07.314Z,98004.88
2022-10-18T00:42:37.891Z,98005.78
2022-10-18T00:45:14.493Z,98006.53
2022-10-18T00:47:42.392Z,97989.03
2022-10-18T00:50:11.646Z,97988.59
2022-10-18T00:52:44.123Z,97980.41
2022-10-18T00:55:11.585Z,97987.91
2022-10-18T00:57:41.788Z,98003.34
2022-10-18T01:00:11.570Z,98000.69
2022-10-18T01:02:41.625Z,97996.75
2022-10-18T01:05:15.253Z,97995.16
2022-10-18T01:07:41.752Z,97998.59
2022-10-18T01:10:35.459Z,98008.72
2022-10-18T01:13:08.834Z,98011.19
2022-10-18T01:15:59.519Z,98001.88
2022-10-18T01:18:37.897Z,98008.44
2022-10-18T01:21:23.175Z,98004.09
2022-10-18T01:24:17.089Z,97997.91
2022-10-18T01:27:01.902Z,97999.78
2022-10-18T01:29:35.008Z,98000.91
2022-10-18T01:32:10.361Z,97982.66
2022-10-18T01:34:40.439Z,97984.97
2022-10-18T01:37:09.779Z,97990.44
2022-10-18T01:39:40.065Z,97987.00
2022-10-18T01:42:10.407Z,97998.59
2022-10-18T01:44:39.280Z,97994.34
2022-10-18T01:47:11.919Z,97992.00
2022-10-18T01:49:38.446Z,97995.09
2022-10-18T01:52:09.506Z,97988.50
2022-10-18T01:54:39.507Z,97985.38
2022-10-18T01:57:16.220Z,97989.28
2022-10-18T01:59:45.703Z,97988.50
2022-10-18T02:02:41.347Z,97994.81
2022-10-18T02:05:17.223Z,97995.66
2022-10-18T02:07:43.830Z,97995.31
2022-10-18T02:10:22.342Z,97997.66
2022-10-18T02:12:52.487Z,97997.75
2022-10-18T02:15:30.404Z,97993.13
2022-10-18T02:17:57.838Z,97986.25
2022-10-18T02:20:29.416Z,97986.25
2022-10-18T02:23:00.559Z,97975.38
2022-10-18T02:25:30.333Z,97979.28
2022-10-18T02:27:59.339Z,97980.44
2022-10-18T02:30:43.479Z,97980.56
2022-10-18T02:33:18.099Z,97962.50
2022-10-18T02:35:53.343Z,97987.22
2022-10-18T02:38:23.594Z,97978.25
2022-10-18T02:40:50.400Z,97987.69
2022-10-18T02:43:16.940Z,97981.13
2022-10-18T02:45:43.975Z,97983.47
2022-10-18T02:48:10.849Z,97980.41
2022-10-18T02:50:42.481Z,97986.63
2022-10-18T02:53:11.300Z,98001.41
2022-10-18T02:55:37.874Z,97995.56
2022-10-18T02:58:04.409Z,97990.91
2022-10-18T03:00:33.423Z,97991.72
2022-10-18T03:03:00.161Z,97997.13
2022-10-18T03:05:29.168Z,98005.69
2022-10-18T03:08:01.217Z,97992.91
2022-10-18T03:10:30.577Z,98012.31
2022-10-18T03:13:00.082Z,98014.63
2022-10-18T03:15:28.979Z,98007.63
2022-10-18T03:17:55.626Z,98013.84
2022-10-18T03:20:25.257Z,98015.38
2022-10-18T03:22:51.795Z,98016.56
2022-10-18T03:25:18.497Z,98014.66
2022-10-18T03:27:44.974Z,98017.00
2022-10-18T03:30:14.170Z,98019.69
2022-10-18T03:32:41.065Z,98015.81
2022-10-18T03:35:09.356Z,98023.13
2022-10-18T03:37:36.245Z,98014.66
2022-10-18T03:40:03.540Z,98023.59
2022-10-18T03:42:30.419Z,98015.06
2022-10-18T03:44:57.629Z,98019.41
2022-10-18T03:47:24.170Z,98015.25
2022-10-18T03:49:53.225Z,98021.81
2022-10-18T03:52:22.846Z,98030.34
2022-10-18T03:54:49.421Z,98022.63
2022-10-18T03:57:18.167Z,98024.59
2022-10-18T03:59:44.695Z,98031.28
2022-10-18T04:02:11.273Z,98025.13
2022-10-18T04:04:37.792Z,98020.53
2022-10-18T04:07:04.438Z,98020.53
2022-10-18T04:09:31.061Z,98025.19
2022-10-18T04:12:00.417Z,98026.75
2022-10-18T04:14:29.650Z,98029.06
2022-10-18T04:16:59.061Z,98032.66
2022-10-18T04:19:25.639Z,98040.41
2022-10-18T04:21:52.548Z,98049.00
2022-10-18T04:24:19.500Z,98043.13
2022-10-18T04:26:48.372Z,98048.56
2022-10-18T04:29:19.726Z,98045.84
2022-10-18T04:31:46.341Z,98043.91
2022-10-18T04:34:12.986Z,98046.66
2022-10-18T04:36:39.614Z,98028.13
2022-10-18T04:39:08.871Z,98048.28
2022-10-18T04:41:38.375Z,98049.47
2022-10-18T04:44:05.081Z,98053.38
2022-10-18T04:46:31.594Z,98046.78
2022-10-18T04:48:58.496Z,98049.88
2022-10-18T04:51:27.339Z,98039.41
2022-10-18T04:53:56.322Z,98052.94
2022-10-18T04:56:23.233Z,98051.72
2022-10-18T04:58:52.218Z,98058.31
2022-10-18T05:01:19.192Z,98064.91
2022-10-18T05:03:51.705Z,98051.72
2022-10-18T05:06:18.592Z,98045.88
2022-10-18T05:08:47.359Z,98047.78
2022-10-18T05:11:14.222Z,98038.09
2022-10-18T05:13:46.011Z,98043.84
2022-10-18T05:16:17.422Z,98039.19
2022-10-18T05:18:44.167Z,98051.63
2022-10-18T05:21:12.363Z,98026.53
2022-10-18T05:23:39.556Z,98042.38
2022-10-18T05:26:09.011Z,98054.03
2022-10-18T05:28:40.552Z,98047.44
2022-10-18T05:31:12.155Z,98049.81
2022-10-18T05:33:41.918Z,98042.88
2022-10-18T05:36:09.336Z,98045.63
2022-10-18T05:38:40.121Z,98046.03
2022-10-18T05:41:07.038Z,98052.28
2022-10-18T05:43:35.807Z,98062.72
2022-10-18T05:46:02.436Z,98060.84
2022-10-18T05:48:28.990Z,98056.94
2022-10-18T05:50:58.952Z,98055.78
2022-10-18T05:53:36.806Z,98062.72
2022-10-18T05:56:06.904Z,98060.38
2022-10-18T05:58:33.894Z,98060.75
2022-10-18T06:01:01.833Z,98068.53
2022-10-18T06:03:28.517Z,98057.28
2022-10-18T06:06:08.630Z,98069.72
2022-10-18T06:08:35.813Z,98068.16
2022-10-18T06:11:15.222Z,98070.09
2022-10-18T06:13:46.768Z,98071.25
2022-10-18T06:16:17.207Z,98076.66
2022-10-18T06:18:43.944Z,98071.91
2022-10-18T06:21:10.549Z,98070.69
2022-10-18T06:23:39.553Z,98064.38
2022-10-18T06:26:10.086Z,98063.88
2022-10-18T06:28:38.918Z,98071.16
2022-10-18T06:31:06.328Z,98070.69
2022-10-18T06:33:37.013Z,98078.72
2022-10-18T06:36:05.212Z,98085.63
2022-10-18T06:38:32.385Z,98069.31
2022-10-18T06:40:59.955Z,98089.34
2022-10-18T06:43:26.972Z,98095.53
2022-10-18T06:45:53.814Z,98091.94
2022-10-18T06:48:23.325Z,98098.78
2022-10-18T06:51:01.092Z,98087.00
2022-10-18T06:53:30.180Z,98098.50
2022-10-18T06:56:06.433Z,98096.72
2022-10-18T06:58:35.528Z,98100.84
2022-10-18T07:01:08.169Z,98100.78
2022-10-18T07:03:35.305Z,98089.06
2022-10-18T07:06:06.060Z,98098.94
2022-10-18T07:08:35.958Z,98106.13
2022-10-18T07:11:05.596Z,98103.56
2022-10-18T07:13:34.914Z,98110.00
2022-10-18T07:16:01.474Z,98112.97
2022-10-18T07:18:28.122Z,98104.66
2022-10-18T07:20:56.772Z,98113.63
2022-10-18T07:23:24.060Z,98117.53
2022-10-18T07:25:51.322Z,98112.63
2022-10-18T07:28:20.876Z,98108.41
2022-10-18T07:30:47.415Z,98110.81
2022-10-18T07:33:14.190Z,98109.78
2022-10-18T07:35:40.755Z,98103.31
2022-10-18T07:38:07.303Z,98107.91
2022-10-18T07:40:36.157Z,98110.13
2022-10-18T07:43:04.681Z,98113.84
2022-10-18T07:45:34.952Z,98114.22
2022-10-18T07:48:03.873Z,98100.81
2022-10-18T07:50:33.258Z,98100.28
2022-10-18T07:53:02.522Z,98112.19
2022-10-18T07:55:29.134Z,98107.84
2022-10-18T07:58:02.517Z,98102.34
2022-10-18T08:00:29.043Z,98107.31
2022-10-18T08:02:59.989Z,98108.06
2022-10-18T08:05:27.544Z,98107.72
2022-10-18T08:07:56.979Z,98113.47
2022-10-18T08:10:26.805Z,98101.38
2022-10-18T08:12:55.981Z,98111.31
2022-10-18T08:15:25.702Z,98096.31
2022-10-18T08:17:54.830Z,98103.31
2022-10-18T08:20:30.529Z,98099.31
2022-10-18T08:23:00.521Z,98095.72
2022-10-18T08:25:27.711Z,98101.81
2022-10-18T08:27:57.048Z,98109.13
2022-10-18T08:30:28.402Z,98102.94
2022-10-18T08:32:59.741Z,98100.81
2022-10-18T08:35:26.379Z,98105.22
2022-10-18T08:37:57.825Z,98105.53
2022-10-18T08:40:27.663Z,98110.25
2022-10-18T08:43:09.235Z,98103.06
2022-10-18T08:45:43.319Z,98110.44
2022-10-18T08:48:50.120Z,98099.75
2022-10-18T08:51:31.460Z,98108.81
2022-10-18T08:54:11.103Z,98112.34
2022-10-18T08:56:39.484Z,98107.09
2022-10-18T08:59:11.259Z,98111.56
2022-10-18T09:01:52.908Z,98101.31
2022-10-18T09:04:33.515Z,98103.44
2022-10-18T09:07:37.669Z,98102.59
2022-10-18T09:10:39.692Z,98107.22
2022-10-18T09:13:26.570Z,98096.94
2022-10-18T09:16:05.079Z,98101.47
2022-10-18T09:19:04.426Z,98102.53
2022-10-18T09:21:51.287Z,98101.91
2022-10-18T09:24:24.825Z,98092.50
2022-10-18T09:26:57.913Z,98088.22
2022-10-18T09:29:37.930Z,98085.63
2022-10-18T09:32:04.783Z,98085.00
2022-10-18T09:34:53.874Z,98083.88
2022-10-18T09:37:23.865Z,98086.44
2022-10-18T09:40:18.041Z,98081.78
2022-10-18T09:43:05.843Z,98082.22
2022-10-18T09:45:38.585Z,98080.72
2022-10-18T09:48:32.781Z,98075.38
2022-10-18T09:51:11.380Z,98074.19
2022-10-18T09:53:51.529Z,98079.59
2022-10-18T09:56:23.790Z,98074.47
2022-10-18T09:58:51.610Z,98087.31
2022-10-18T10:01:25.939Z,98080.94
2022-10-18T10:03:53.105Z,98086.47
2022-10-18T10:06:29.207Z,98073.75
2022-10-18T10:09:19.306Z,98079.00
2022-10-18T10:11:51.186Z,98063.09
2022-10-18T10:14:26.735Z,98076.69
2022-10-18T10:16:53.243Z,98078.31
2022-10-18T10:19:27.542Z,98071.50
2022-10-18T10:22:07.461Z,98073.66
2022-10-18T10:24:56.683Z,98071.13
2022-10-18T10:27:32.011Z,98064.94
2022-10-18T10:30:07.237Z,98064.56
2022-10-18T10:32:48.821Z,98059.84
2022-10-18T10:35:41.552Z,98060.72
2022-10-18T10:38:24.244Z,98070.75
2022-10-18T10:40:51.172Z,98063.28
2022-10-18T10:43:37.675Z,98055.59
2022-10-18T10:46:19.275Z,98059.81
2022-10-18T10:49:00.383Z,98054.31
2022-10-18T10:51:42.628Z,98060.97
2022-10-18T10:54:24.335Z,98056.28
2022-10-18T10:57:12.445Z,98053.72
2022-10-18T10:59:50.798Z,98044.31
2022-10-18T11:02:32.220Z,98045.56
2022-10-18T11:05:40.388Z,98037.13
2022-10-18T11:08:13.295Z,98035.13
2022-10-18T11:10:53.467Z,98033.50
2022-10-18T11:13:35.735Z,98034.53
2022-10-18T11:16:12.554Z,98025.34
2022-10-18T11:18:43.895Z,98022.13
2022-10-18T11:21:31.815Z,98020.44
2022-10-18T11:24:02.054Z,98012.94
2022-10-18T11:26:48.861Z,98014.06
2022-10-18T11:30:02.773Z,98013.38
2022-10-18T11:32:47.876Z,98000.28
2022-10-18T11:35:31.304Z,98011.09
2022-10-18T11:38:05.184Z,97992.03
2022-10-18T11:40:40.727Z,98009.09
2022-10-18T11:43:20.176Z,97997.03
2022-10-18T11:45:57.951Z,98002.06
2022-10-18T11:49:19.181Z,97998.63
2022-10-18T11:52:07.963Z,97991.13
2022-10-18T11:55:03.122Z,97989.19
2022-10-18T11:57:36.088Z,97991.22
2022-10-18T12:00:17.828Z,97983.75
2022-10-18T12:02:59.614Z,97983.88
2022-10-18T12:05:29.917Z,97976.06
2022-10-18T12:08:07.961Z,97982.97
2022-10-18T12:10:46.066Z,97970.91
2022-10-18T12:13:41.142Z,97968.16
2022-10-18T12:16:09.351Z,97976.28
2022-10-18T12:18:43.394Z,97973.53
2022-10-18T12:21:12.779Z,97974.94
2022-10-18T12:23:52.015Z,97961.28
2022-10-18T12:26:22.943Z,97967.28
2022-10-18T12:28:54.207Z,97967.13
2022-10-18T12:31:42.368Z,97956.09
2022-10-18T12:34:34.423Z,97949.97
2022-10-18T12:37:09.852Z,97946.75
2022-10-18T12:40:05.432Z,97945.22
2022-10-18T12:42:40.257Z,97931.28
2022-10-18T12:45:20.661Z,97926.69
2022-10-18T12:47:47.315Z,97929.59
2022-10-18T12:50:36.987Z,97935.44
2022-10-18T12:53:09.817Z,97928.38
2022-10-18T12:55:51.954Z,97929.59
2022-10-18T12:58:23.967Z,97930.94
2022-10-18T13:00:50.473Z,97922.84
2022-10-18T13:03:17.363Z,97921.00
2022-10-18T13:06:00.718Z,97919.34
2022-10-18T13:08:30.400Z,97916.09
2022-10-18T13:11:09.411Z,97921.00
2022-10-18T13:13:54.888Z,97910.75
2022-10-18T13:16:47.985Z,97901.09
2022-10-18T13:19:18.763Z,97901.22
2022-10-18T13:22:05.504Z,97897.88
2022-10-18T13:24:45.543Z,97902.31
2022-10-18T13:27:35.880Z,97897.56
2022-10-18T13:30:23.227Z,97900.00
2022-10-18T13:32:55.545Z,97899.41
2022-10-18T13:35:55.527Z,97910.91
2022-10-18T13:38:43.720Z,97903.50
2022-10-18T13:41:43.710Z,97911.63
2022-10-18T13:44:39.930Z,97906.44
2022-10-18T13:47:07.026Z,97910.25
2022-10-18T13:49:39.657Z,97902.94
2022-10-18T13:52:17.489Z,97911.03
2022-10-18T13:55:20.638Z,97907.06
2022-10-18T13:57:53.151Z,97902.94
2022-10-18T14:00:44.914Z,97899.69
2022-10-18T14:06:28.354Z,97893.41
2022-10-18T14:09:25.522Z,97906.75
2022-10-18T14:12:28.657Z,97908.00
2022-10-18T14:15:23.326Z,97899.44
2022-10-18T14:17:58.156Z,97896.34
2022-10-18T14:20:29.861Z,97897.59
2022-10-18T14:23:19.025Z,97901.41
2022-10-18T14:25:46.057Z,97897.25
2022-10-18T14:28:21.666Z,97892.84
2022-10-18T14:30:58.941Z,97903.06
2022-10-18T14:33:27.471Z,97892.03
2022-10-18T14:36:20.386Z,97895.44
2022-10-18T14:38:58.975Z,97895.13
2022-10-18T14:41:27.409Z,97898.19
2022-10-18T14:44:16.776Z,97899.09
2022-10-18T14:46:44.417Z,97898.94
2022-10-18T14:49:14.534Z,97907.84
2022-10-18T14:51:44.017Z,97909.38
2022-10-18T14:54:23.125Z,97904.78
2022-10-18T14:56:54.049Z,97909.22
2022-10-18T14:59:28.545Z,97901.59
2022-10-18T15:02:23.869Z,97897.44
2022-10-18T15:05:10.233Z,97895.28
2022-10-18T15:07:37.281Z,97894.81
2022-10-18T15:10:05.567Z,97893.59
2022-10-18T15:12:37.009Z,97889.94
2022-10-18T15:15:24.400Z,97892.25
2022-10-18T15:17:52.415Z,97893.91
2022-10-18T15:20:34.160Z,97892.38
2022-10-18T15:23:31.353Z,97898.41
2022-10-18T15:26:09.788Z,97892.03
2022-10-18T15:28:51.215Z,97891.69
2022-10-18T15:31:29.561Z,97891.69
2022-10-18T15:34:10.622Z,97890.81
2022-10-18T15:36:38.079Z,97888.53
2022-10-18T15:39:18.151Z,97887.00
2022-10-18T15:41:57.201Z,97880.72
2022-10-18T15:44:34.655Z,97877.06
2022-10-18T15:47:21.095Z,97875.75
2022-10-18T15:49:58.841Z,97872.84
2022-10-18T15:52:39.530Z,97872.97
2022-10-18T15:55:30.956Z,97872.06
2022-10-18T15:58:05.979Z,97875.41
2022-10-18T16:00:35.038Z,97873.25
2022-10-18T16:03:01.600Z,97873.50
2022-10-18T16:05:28.172Z,97858.03
2022-10-18T16:07:57.440Z,97867.47
2022-10-18T16:10:28.786Z,97868.19
2022-10-18T16:12:57.714Z,97866.25
2022-10-18T16:15:24.444Z,97866.97
2022-10-18T16:17:58.251Z,97861.28
2022-10-18T16:20:25.351Z,97873.44
2022-10-18T16:22:52.068Z,97873.81
2022-10-18T16:25:20.894Z,97861.38
2022-10-18T16:27:47.487Z,97870.06
2022-10-18T16:30:23.478Z,97873.88
2022-10-18T16:32:52.251Z,97875.41
2022-10-18T16:35:18.784Z,97865.53
2022-10-18T16:37:48.131Z,97875.03
2022-10-18T16:40:23.346Z,97869.75
2022-10-18T16:42:49.942Z,97868.78
2022-10-18T16:45:16.781Z,97880.81
2022-10-18T16:47:45.604Z,97874.69
2022-10-18T16:50:18.798Z,97877.22
2022-10-18T16:52:48.320Z,97879.88
2022-10-18T16:55:17.285Z,97877.56
2022-10-18T16:57:44.114Z,97883.38
2022-10-18T17:00:28.746Z,97893.50
2022-10-18T17:02:57.621Z,97889.22
2022-10-18T17:05:24.276Z,97887.88
2022-10-18T17:07:50.917Z,97896.91
2022-10-18T17:10:24.363Z,97890.09
2022-10-18T17:12:51.807Z,97896.06
2022-10-18T17:15:23.868Z,97901.34
2022-10-18T17:17:52.793Z,97903.22
2022-10-18T17:20:26.055Z,97903.00
2022-10-18T17:22:57.335Z,97907.28
2022-10-18T17:25:24.313Z,97912.34
2022-10-18T17:27:50.973Z,97895.84
2022-10-18T17:30:22.376Z,97911.53
2022-10-18T17:32:48.963Z,97911.44
2022-10-18T17:35:15.516Z,97909.63
2022-10-18T17:37:45.302Z,97914.00
2022-10-18T17:40:14.881Z,97914.88
2022-10-18T17:42:41.539Z,97915.38
2022-10-18T17:45:09.025Z,97920.34
2022-10-18T17:47:37.894Z,97924.94
2022-10-18T17:50:07.405Z,97924.38
2022-10-18T17:52:34.065Z,97927.63
2022-10-18T17:55:01.052Z,97918.84
2022-10-18T17:57:27.709Z,97916.53
2022-10-18T18:00:03.070Z,97910.28
2022-10-18T18:02:32.138Z,97916.50
2022-10-18T18:04:59.429Z,97924.81
2022-10-18T18:07:25.929Z,97926.91
2022-10-18T18:09:54.839Z,97921.47
2022-10-18T18:12:21.511Z,97922.78
2022-10-18T18:14:51.128Z,97919.09
2022-10-18T18:17:24.785Z,97921.25
2022-10-18T18:20:03.140Z,97926.84
2022-10-18T18:22:30.206Z,97923.84
2022-10-18T18:24:56.992Z,97912.31
2022-10-18T18:27:26.031Z,97924.81
2022-10-18T18:29:57.325Z,97918.91
2022-10-18T18:32:26.211Z,97921.66
2022-10-18T18:34:55.064Z,97919.72
2022-10-18T18:37:21.742Z,97918.13
2022-10-18T18:39:48.418Z,97919.41
2022-10-18T18:42:15.364Z,97916.00
2022-10-18T18:44:45.861Z,97922.41
2022-10-18T18:47:21.598Z,97915.41
2022-10-18T18:49:48.660Z,97920.34
2022-10-18T18:52:15.355Z,97926.84
2022-10-18T18:54:47.238Z,97920.25
2022-10-18T18:57:13.760Z,97920.25
2022-10-18T18:59:40.287Z,97921.63
2022-10-18T19:02:06.876Z,97913.00
2022-10-18T19:04:35.081Z,97908.97
2022-10-18T19:07:01.993Z,97924.63
2022-10-18T19:09:31.809Z,97922.56
2022-10-18T19:12:00.663Z,97931.44
2022-10-18T19:14:29.045Z,97924.63
2022-10-18T19:16:59.648Z,97929.41
2022-10-18T19:19:31.081Z,97920.94
2022-10-18T19:22:03.659Z,97927.53
2022-10-18T19:24:34.933Z,97928.78
2022-10-18T19:27:04.670Z,97934.59
2022-10-18T19:29:36.425Z,97932.72
2022-10-18T19:32:07.107Z,97938.00
2022-10-18T19:34:39.315Z,97932.34
2022-10-18T19:37:09.866Z,97927.81
2022-10-18T19:39:36.690Z,97926.44
2022-10-18T19:42:06.351Z,97926.00
2022-10-18T19:44:35.909Z,97929.16
2022-10-18T19:47:04.250Z,97923.75
2022-10-18T19:49:30.823Z,97929.28
2022-10-18T19:51:57.538Z,97923.00
2022-10-18T19:54:24.998Z,97926.16
2022-10-18T19:56:51.683Z,97931.34
2022-10-18T19:59:19.099Z,97933.03
2022-10-18T20:01:46.262Z,97940.44
2022-10-18T20:04:15.073Z,97927.53
2022-10-18T20:06:42.354Z,97931.84
2022-10-18T20:09:13.433Z,97932.13
2022-10-18T20:11:42.841Z,97934.16
2022-10-18T20:14:11.863Z,97939.25
2022-10-18T20:16:38.449Z,97916.78
2022-10-18T20:19:07.629Z,97931.84
2022-10-18T20:21:35.996Z,97932.69
2022-10-18T20:24:05.534Z,97926.78
2022-10-18T20:26:32.550Z,97926.88
2022-10-18T20:29:00.390Z,97922.66
2022-10-18T20:31:32.706Z,97927.09
2022-10-18T20:34:03.760Z,97926.72
2022-10-18T20:36:31.962Z,97922.59
2022-10-18T20:38:59.376Z,97921.03
2022-10-18T20:41:31.701Z,97923.59
2022-10-18T20:44:02.987Z,97925.94
2022-10-18T20:46:33.682Z,97926.00
2022-10-18T20:49:02.979Z,97920.28
2022-10-18T20:51:29.554Z,97912.22
2022-10-18T20:53:56.282Z,97923.00
2022-10-18T20:56:27.412Z,97922.69
2022-10-18T20:58:56.208Z,97923.25
2022-10-18T21:01:25.535Z,97917.53
2022-10-18T21:03:56.740Z,97925.00
2022-10-18T21:06:30.888Z,97921.66
2022-10-18T21:09:06.156Z,97919.84
2022-10-18T21:11:37.376Z,97928.56
2022-10-18T21:14:04.985Z,97928.03
2022-10-18T21:16:33.457Z,97920.25
2022-10-18T21:19:08.815Z,97917.47
2022-10-18T21:21:35.780Z,97907.16
2022-10-18T21:24:05.413Z,97915.41
2022-10-18T21:26:34.760Z,97913.25
2022-10-18T21:29:01.506Z,97904.31
2022-10-18T21:31:31.151Z,97912.31
2022-10-18T21:34:00.782Z,97905.25
2022-10-18T21:36:30.826Z,97910.72
2022-10-18T21:38:59.821Z,97894.84
2022-10-18T21:41:28.680Z,97897.91
2022-10-18T21:43:55.297Z,97892.13
2022-10-18T21:46:24.417Z,97899.44
2022-10-18T21:48:53.523Z,97899.41
2022-10-18T21:51:24.249Z,97894.00
2022-10-18T21:53:55.613Z,97894.00
2022-10-18T21:56:25.241Z,97889.31
2022-10-18T21:58:51.826Z,97882.38
2022-10-18T22:01:19.934Z,97881.19
2022-10-18T22:03:48.984Z,97883.75
2022-10-18T22:06:18.815Z,97875.16
2022-10-18T22:08:52.449Z,97886.06
2022-10-18T22:11:24.370Z,97872.84
2022-10-18T22:13:53.955Z,97876.81
2022-10-18T22:16:21.404Z,97873.44
2022-10-18T22:18:48.870Z,97872.84
2022-10-18T22:21:17.953Z,97867.34
2022-10-18T22:23:57.115Z,97868.88
2022-10-18T22:26:34.762Z,97870.06
2022-10-18T22:29:06.592Z,97869.69
2022-10-18T22:31:38.248Z,97858.78
2022-10-18T22:34:07.768Z,97865.72
2022-10-18T22:36:35.117Z,97873.13
2022-10-18T22:39:08.038Z,97866.06
2022-10-18T22:41:36.106Z,97854.91
2022-10-18T22:44:03.950Z,97866.88
2022-10-18T22:46:33.992Z,97856.84
2022-10-18T22:49:03.120Z,97851.81
2022-10-18T22:54:07.893Z,97852.78
2022-10-18T22:56:34.911Z,97857.97
2022-10-18T22:59:03.708Z,97848.97
2022-10-18T23:01:32.677Z,97851.53
2022-10-18T23:04:01.381Z,97858.34
2022-10-18T23:06:33.425Z,97846.75
2022-10-18T23:09:03.009Z,97846.38
2022-10-18T23:11:32.630Z,97844.91
2022-10-18T23:14:03.719Z,97847.63
2022-10-18T23:16:30.397Z,97842.84
2022-10-18T23:18:58.269Z,97845.13
2022-10-18T23:21:28.335Z,97838.94
2022-10-18T23:23:57.930Z,97839.28
2022-10-18T23:26:26.682Z,97846.69
2022-10-18T23:28:54.176Z,97840.59
2022-10-18T23:31:26.962Z,97840.19
2022-10-18T23:33:55.527Z,97834.38
2022-10-18T23:36:23.302Z,97840.91
2022-10-18T23:38:50.256Z,97837.47
2022-10-18T23:41:17.998Z,97833.28
2022-10-18T23:43:47.576Z,97838.38
2022-10-18T23:46:15.979Z,97839.56
2022-10-18T23:48:46.039Z,97838.03
2022-10-18T23:51:12.600Z,97821.84
2022-10-18T23:53:39.287Z,97820.97
2022-10-18T23:56:16.106Z,97831.44
2022-10-18T23:58:43.926Z,97834.94
